createdAt,value
2022-12-19T00:00:39.747Z,78.46
2022-12-19T00:03:27.764Z,78.56
2022-12-19T00:06:14.986Z,78.54
2022-12-19T00:09:01.252Z,78.71
2022-12-19T00:11:47.820Z,78.85
2022-12-19T00:14:34.237Z,78.74
2022-12-19T00:17:20.971Z,78.92
2022-12-19T00:20:08.299Z,79.21
2022-12-19T00:22:55.823Z,79.16
2022-12-19T00:25:42.107Z,79.44
2022-12-19T00:28:29.252Z,79.16
2022-12-19T00:31:16.381Z,79.09
2022-12-19T00:34:02.921Z,78.89
2022-12-19T00:36:49.015Z,78.79
2022-12-19T00:39:35.459Z,78.78
2022-12-19T00:42:21.919Z,79.00
2022-12-19T00:45:08.592Z,78.64
2022-12-19T00:47:54.759Z,79.00
2022-12-19T00:50:41.125Z,79.25
2022-12-19T00:53:27.371Z,79.18
2022-12-19T00:56:15.322Z,79.26
2022-12-19T00:59:02.578Z,79.20
2022-12-19T01:01:49.064Z,79.21
2022-12-19T01:04:39.843Z,79.24
2022-12-19T01:07:27.981Z,79.23
2022-12-19T01:10:14.397Z,79.37
2022-12-19T01:13:00.932Z,79.47
2022-12-19T01:15:47.411Z,79.25
2022-12-19T01:18:34.003Z,79.21
2022-12-19T01:21:20.531Z,79.17
2022-12-19T01:24:06.867Z,79.44
2022-12-19T01:26:52.856Z,79.58
2022-12-19T01:29:51.738Z,79.40
2022-12-19T01:32:39.717Z,79.53
2022-12-19T01:35:26.433Z,79.44
2022-12-19T01:38:19.842Z,79.39
2022-12-19T01:41:06.399Z,79.12
2022-12-19T01:44:05.581Z,79.13
2022-12-19T01:46:57.601Z,79.15
2022-12-19T01:49:45.324Z,78.97
2022-12-19T01:52:31.593Z,79.12
2022-12-19T01:55:18.453Z,79.09
2022-12-19T01:58:04.992Z,78.94
2022-12-19T02:00:51.583Z,79.08
2022-12-19T02:03:38.989Z,79.17
2022-12-19T02:06:25.611Z,79.03
2022-12-19T02:09:11.560Z,78.87
2022-12-19T02:11:58.920Z,78.84
2022-12-19T02:14:45.428Z,78.74
2022-12-19T02:17:39.135Z,78.81
2022-12-19T02:20:30.538Z,78.91
2022-12-19T02:23:32.101Z,78.84
2022-12-19T02:26:43.045Z,78.85
2022-12-19T02:29:49.531Z,78.88
2022-12-19T02:32:48.312Z,78.88
2022-12-19T02:35:45.371Z,78.88
2022-12-19T02:38:51.617Z,78.99
2022-12-19T02:41:44.152Z,78.93
2022-12-19T02:44:33.694Z,78.84
2022-12-19T02:47:21.171Z,78.81
2022-12-19T02:50:08.223Z,78.73
2022-12-19T02:52:54.796Z,78.62
2022-12-19T02:56:01.544Z,78.54
2022-12-19T02:58:52.261Z,78.76
2022-12-19T03:01:43.263Z,78.55
2022-12-19T03:04:45.565Z,78.80
2022-12-19T03:07:32.183Z,78.61
2022-12-19T03:10:44.354Z,78.67
2022-12-19T03:13:54.970Z,78.53
2022-12-19T03:16:41.086Z,78.56
2022-12-19T03:19:27.467Z,78.48
2022-12-19T03:22:13.881Z,78.63
2022-12-19T03:25:00.502Z,78.42
2022-12-19T03:27:46.931Z,78.43
2022-12-19T03:30:33.448Z,78.36
2022-12-19T03:33:19.752Z,78.18
2022-12-19T03:36:07.840Z,78.22
2022-12-19T03:38:54.731Z,78.18
2022-12-19T03:41:59.986Z,77.83
2022-12-19T03:44:46.418Z,77.90
2022-12-19T03:47:37.103Z,77.69
2022-12-19T03:50:23.687Z,77.80
2022-12-19T03:53:20.579Z,77.68
2022-12-19T03:56:16.792Z,77.73
2022-12-19T03:59:21.503Z,77.85
2022-12-19T04:02:08.423Z,77.51
2022-12-19T04:05:01.120Z,77.63
2022-12-19T04:07:47.696Z,77.50
2022-12-19T04:10:36.681Z,77.71
2022-12-19T04:13:33.556Z,77.71
2022-12-19T04:16:45.867Z,77.78
2022-12-19T04:19:42.656Z,77.66
2022-12-19T04:22:34.551Z,77.34
2022-12-19T04:25:29.174Z,77.52
2022-12-19T04:28:38.799Z,77.39
2022-12-19T04:31:25.127Z,77.47
2022-12-19T04:34:11.859Z,77.40
2022-12-19T04:36:58.562Z,77.48
2022-12-19T04:39:45.136Z,77.54
2022-12-19T04:42:31.377Z,77.53
2022-12-19T04:45:17.640Z,77.56
2022-12-19T04:48:04.573Z,77.33
2022-12-19T04:50:51.389Z,77.22
2022-12-19T04:53:37.707Z,77.25
2022-12-19T04:56:24.191Z,77.11
2022-12-19T04:59:10.611Z,77.00
2022-12-19T05:01:57.851Z,77.06
2022-12-19T05:04:45.524Z,76.98
2022-12-19T05:07:32.058Z,77.24
2022-12-19T05:10:18.389Z,76.97
2022-12-19T05:13:04.569Z,77.15
2022-12-19T05:16:01.223Z,76.98
2022-12-19T05:18:47.788Z,77.02
2022-12-19T05:21:34.137Z,76.80
2022-12-19T05:24:20.758Z,76.96
2022-12-19T05:27:07.238Z,76.95
2022-12-19T05:29:53.327Z,76.72
2022-12-19T05:32:39.965Z,76.90
2022-12-19T05:35:26.312Z,76.76
2022-12-19T05:38:12.919Z,76.95
2022-12-19T05:41:00.302Z,77.03
2022-12-19T05:43:50.517Z,76.85
2022-12-19T05:46:36.955Z,76.53
2022-12-19T05:49:23.562Z,76.11
2022-12-19T05:52:11.425Z,76.34
2022-12-19T05:54:57.684Z,76.38
2022-12-19T05:57:44.461Z,76.12
2022-12-19T06:00:30.901Z,76.12
2022-12-19T06:03:17.345Z,76.38
2022-12-19T06:06:04.550Z,76.07
2022-12-19T06:08:54.719Z,76.22
2022-12-19T06:11:40.772Z,76.33
2022-12-19T06:14:27.128Z,76.34
2022-12-19T06:17:13.773Z,75.96
2022-12-19T06:20:00.192Z,75.96
2022-12-19T06:22:46.417Z,76.33
2022-12-19T06:25:32.828Z,75.65
2022-12-19T06:28:20.182Z,75.72
2022-12-19T06:31:07.376Z,75.54
2022-12-19T06:33:54.586Z,75.34
2022-12-19T06:36:41.212Z,75.07
2022-12-19T06:39:27.989Z,74.60
2022-12-19T06:42:22.957Z,74.77
2022-12-19T06:45:09.498Z,74.55
2022-12-19T06:47:56.217Z,74.48
2022-12-19T06:50:42.469Z,74.46
2022-12-19T06:53:28.777Z,74.55
2022-12-19T06:56:15.749Z,74.63
2022-12-19T06:59:02.443Z,74.44
2022-12-19T07:02:19.822Z,74.46
2022-12-19T07:05:06.684Z,74.57
2022-12-19T07:07:52.857Z,74.26
2022-12-19T07:10:39.543Z,74.09
2022-12-19T07:13:25.718Z,74.38
2022-12-19T07:16:12.279Z,74.09
2022-12-19T07:18:58.649Z,73.97
2022-12-19T07:21:44.937Z,74.18
2022-12-19T07:24:31.152Z,73.77
2022-12-19T07:27:17.697Z,73.38
2022-12-19T07:30:05.023Z,73.07
2022-12-19T07:32:51.582Z,73.02
2022-12-19T07:35:37.981Z,72.84
2022-12-19T07:38:24.489Z,72.16
2022-12-19T07:41:10.489Z,72.18
2022-12-19T07:43:56.893Z,71.42
2022-12-19T07:46:43.206Z,70.56
2022-12-19T07:49:29.507Z,70.54
2022-12-19T07:52:15.578Z,69.69
2022-12-19T07:55:01.784Z,69.58
2022-12-19T07:57:48.387Z,68.91
2022-12-19T08:00:35.046Z,68.54
2022-12-19T08:03:22.007Z,68.37
2022-12-19T08:06:08.642Z,67.20
2022-12-19T08:08:55.239Z,67.45
2022-12-19T08:11:41.884Z,67.25
2022-12-19T08:14:28.590Z,66.43
2022-12-19T08:17:22.258Z,66.28
2022-12-19T08:20:09.628Z,65.71
2022-12-19T08:22:55.998Z,65.52
2022-12-19T08:25:42.471Z,64.83
2022-12-19T08:28:28.911Z,64.40
2022-12-19T08:31:16.858Z,63.60
2022-12-19T08:34:03.238Z,63.97
2022-12-19T08:36:50.215Z,64.39
2022-12-19T08:39:36.659Z,64.71
2022-12-19T08:42:23.201Z,65.11
2022-12-19T08:45:09.636Z,65.69
2022-12-19T08:47:56.855Z,65.80
2022-12-19T08:50:53.843Z,65.95
2022-12-19T08:53:41.183Z,66.46
2022-12-19T08:56:27.552Z,66.29
2022-12-19T08:59:24.938Z,66.10
2022-12-19T09:02:17.459Z,65.97
2022-12-19T09:06:01.676Z,65.16
2022-12-19T09:08:10.424Z,64.61
2022-12-19T09:11:05.104Z,64.26
2022-12-19T09:13:51.798Z,63.74
2022-12-19T09:16:38.200Z,63.46
2022-12-19T09:19:24.721Z,63.24
2022-12-19T09:22:11.999Z,62.81
2022-12-19T09:24:58.850Z,62.26
2022-12-19T09:28:17.958Z,62.25
2022-12-19T09:30:57.795Z,61.54
2022-12-19T09:33:44.385Z,60.84
2022-12-19T09:36:31.179Z,61.02
2022-12-19T09:39:17.766Z,60.29
2022-12-19T09:42:21.952Z,59.90
2022-12-19T09:45:31.311Z,59.63
2022-12-19T09:48:24.732Z,59.61
2022-12-19T09:51:18.353Z,60.26
2022-12-19T09:54:16.635Z,59.33
2022-12-19T09:57:05.333Z,58.43
2022-12-19T09:59:55.488Z,56.91
2022-12-19T10:02:54.379Z,56.39
2022-12-19T10:06:40.411Z,55.31
2022-12-19T10:10:12.440Z,55.43
2022-12-19T10:12:43.926Z,55.99
2022-12-19T10:15:38.819Z,55.60
2022-12-19T10:18:33.246Z,56.15
2022-12-19T10:22:17.843Z,56.58
2022-12-19T10:25:21.214Z,56.70
2022-12-19T10:28:37.342Z,57.04
2022-12-19T10:31:38.613Z,56.86
2022-12-19T10:34:33.326Z,56.74
2022-12-19T10:37:40.853Z,56.80
2022-12-19T10:40:34.698Z,56.75
2022-12-19T10:43:44.409Z,56.71
2022-12-19T10:46:46.340Z,56.83
2022-12-19T10:49:32.746Z,56.99
2022-12-19T10:53:07.262Z,56.47
2022-12-19T10:55:55.167Z,57.29
2022-12-19T10:58:43.254Z,56.51
2022-12-19T11:01:30.193Z,56.39
2022-12-19T11:04:33.446Z,55.47
2022-12-19T11:07:20.857Z,55.97
2022-12-19T11:11:57.985Z,55.66
2022-12-19T11:19:46.411Z,55.63
2022-12-19T11:23:39.141Z,55.01
2022-12-19T11:29:26.597Z,54.87
2022-12-19T11:29:40.715Z,54.95
2022-12-19T11:30:41.453Z,55.40
2022-12-19T11:33:14.475Z,55.25
2022-12-19T11:36:01.792Z,55.25
2022-12-19T11:38:54.296Z,55.71
2022-12-19T11:41:47.523Z,55.05
2022-12-19T11:44:37.389Z,55.40
2022-12-19T11:47:38.648Z,55.82
2022-12-19T11:50:27.881Z,54.68
2022-12-19T11:53:23.249Z,55.41
2022-12-19T11:56:15.796Z,55.79
2022-12-19T11:59:11.718Z,55.59
2022-12-19T12:02:19.007Z,56.00
2022-12-19T12:05:42.747Z,55.93
2022-12-19T12:12:33.450Z,55.85
2022-12-19T12:21:30.006Z,56.51
2022-12-19T12:27:14.842Z,56.39
2022-12-19T12:31:09.513Z,57.11
2022-12-19T12:31:17.154Z,56.88
2022-12-19T12:31:48.343Z,57.37
2022-12-19T12:32:04.007Z,57.04
2022-12-19T12:35:48.802Z,56.96
2022-12-19T12:39:41.347Z,57.73
2022-12-19T12:42:59.914Z,57.46
2022-12-19T12:45:48.528Z,58.03
2022-12-19T12:48:38.583Z,58.03
2022-12-19T12:51:25.192Z,58.46
2022-12-19T12:54:12.604Z,58.53
2022-12-19T12:56:59.204Z,58.39
2022-12-19T12:59:46.599Z,58.18
2022-12-19T13:02:33.418Z,58.41
2022-12-19T13:05:40.951Z,58.70
2022-12-19T13:08:29.500Z,59.10
2022-12-19T13:11:54.921Z,59.75
2022-12-19T13:14:43.204Z,59.80
2022-12-19T13:17:35.236Z,60.72
2022-12-19T13:20:25.236Z,60.81
2022-12-19T13:23:26.443Z,61.56
2022-12-19T13:26:43.106Z,61.99
2022-12-19T13:29:31.837Z,62.43
2022-12-19T13:32:18.244Z,62.68
2022-12-19T13:35:49.127Z,63.11
2022-12-19T13:39:51.733Z,63.20
2022-12-19T13:41:47.243Z,63.89
2022-12-19T13:44:37.355Z,64.17
2022-12-19T13:47:24.656Z,64.36
2022-12-19T13:50:37.483Z,64.33
2022-12-19T13:53:26.222Z,64.48
2022-12-19T13:56:14.238Z,64.94
2022-12-19T13:59:01.555Z,65.08
2022-12-19T14:01:48.229Z,65.63
2022-12-19T14:04:34.770Z,65.90
2022-12-19T14:07:37.466Z,66.09
2022-12-19T14:11:32.296Z,66.44
2022-12-19T14:14:12.773Z,66.55
2022-12-19T14:17:07.995Z,66.49
2022-12-19T14:20:06.807Z,66.64
2022-12-19T14:23:01.019Z,66.93
2022-12-19T14:28:14.470Z,67.06
2022-12-19T14:30:28.625Z,67.30
2022-12-19T14:33:46.477Z,67.09
2022-12-19T14:36:12.362Z,67.62
2022-12-19T14:39:27.033Z,67.46
2022-12-19T14:42:11.691Z,67.80
2022-12-19T14:52:36.162Z,67.91
2022-12-19T14:54:01.973Z,67.75
2022-12-19T14:54:37.407Z,67.82
2022-12-19T14:55:32.444Z,68.15
2022-12-19T14:58:53.923Z,68.02
2022-12-19T15:01:09.245Z,67.98
2022-12-19T15:04:53.435Z,68.22
2022-12-19T15:07:21.152Z,68.62
2022-12-19T15:11:04.268Z,68.38
2022-12-19T15:14:48.563Z,68.47
2022-12-19T15:16:37.330Z,69.02
2022-12-19T15:19:23.906Z,69.35
2022-12-19T15:22:10.492Z,68.90
2022-12-19T15:24:56.985Z,69.14
2022-12-19T15:27:44.093Z,69.21
2022-12-19T15:30:30.457Z,69.07
2022-12-19T15:33:16.926Z,69.00
2022-12-19T15:36:03.453Z,69.27
2022-12-19T15:38:49.766Z,69.61
2022-12-19T15:41:36.108Z,69.79
2022-12-19T15:44:36.740Z,69.75
2022-12-19T15:47:30.133Z,70.46
2022-12-19T15:50:21.900Z,70.72
2022-12-19T15:53:34.581Z,70.11
2022-12-19T15:56:30.555Z,70.00
2022-12-19T15:59:38.560Z,69.87
2022-12-19T16:02:27.990Z,70.30
2022-12-19T16:05:24.498Z,70.05
2022-12-19T16:08:12.364Z,70.32
2022-12-19T16:11:01.695Z,70.47
2022-12-19T16:13:55.703Z,70.51
2022-12-19T16:16:42.467Z,70.75
2022-12-19T16:19:30.291Z,71.05
2022-12-19T16:22:22.440Z,71.05
2022-12-19T16:25:11.459Z,71.49
2022-12-19T16:27:58.437Z,71.16
2022-12-19T16:30:45.119Z,71.05
2022-12-19T16:33:31.738Z,70.91
2022-12-19T16:36:18.558Z,70.84
2022-12-19T16:39:05.395Z,70.99
2022-12-19T16:41:51.689Z,70.98
2022-12-19T16:44:37.972Z,70.58
2022-12-19T16:47:24.760Z,70.59
2022-12-19T16:50:31.303Z,71.21
2022-12-19T16:53:17.926Z,71.25
2022-12-19T16:56:04.767Z,71.03
2022-12-19T16:58:51.878Z,71.05
2022-12-19T17:01:38.620Z,71.06
2022-12-19T17:04:25.079Z,71.00
2022-12-19T17:07:12.045Z,71.04
2022-12-19T17:09:58.455Z,71.15
2022-12-19T17:12:44.931Z,71.14
2022-12-19T17:15:36.799Z,71.22
2022-12-19T17:18:34.461Z,71.26
2022-12-19T17:21:21.736Z,71.23
2022-12-19T17:24:12.588Z,71.01
2022-12-19T17:26:58.836Z,70.94
2022-12-19T17:29:47.167Z,70.88
2022-12-19T17:32:33.663Z,71.02
2022-12-19T17:35:27.595Z,71.17
2022-12-19T17:38:15.752Z,71.13
2022-12-19T17:41:02.414Z,71.20
2022-12-19T17:43:48.769Z,71.18
2022-12-19T17:46:35.247Z,71.44
2022-12-19T17:49:27.397Z,71.54
2022-12-19T17:52:18.010Z,71.33
2022-12-19T17:55:22.102Z,71.24
2022-12-19T17:58:09.982Z,71.32
2022-12-19T18:00:56.755Z,71.14
2022-12-19T18:03:42.941Z,71.24
2022-12-19T18:06:29.878Z,71.36
2022-12-19T18:09:20.170Z,71.23
2022-12-19T18:12:06.916Z,71.46
2022-12-19T18:14:53.235Z,71.22
2022-12-19T18:17:39.587Z,71.56
2022-12-19T18:20:32.608Z,71.74
2022-12-19T18:23:21.290Z,71.54
2022-12-19T18:26:07.976Z,72.13
2022-12-19T18:28:54.789Z,72.17
2022-12-19T18:31:46.431Z,72.12
2022-12-19T18:34:36.622Z,72.24
2022-12-19T18:37:23.080Z,72.45
2022-12-19T18:40:25.973Z,73.23
2022-12-19T18:43:16.334Z,73.62
2022-12-19T18:46:02.477Z,74.36
2022-12-19T18:48:49.062Z,74.56
2022-12-19T18:51:38.092Z,74.81
2022-12-19T18:54:25.345Z,74.67
2022-12-19T18:57:11.671Z,75.12
2022-12-19T18:59:58.261Z,75.05
2022-12-19T19:02:56.165Z,75.47
2022-12-19T19:05:42.925Z,75.60
2022-12-19T19:08:31.297Z,75.08
2022-12-19T19:11:17.486Z,75.19
2022-12-19T19:14:04.237Z,74.81
2022-12-19T19:16:52.492Z,74.89
2022-12-19T19:19:38.647Z,75.11
2022-12-19T19:22:25.443Z,75.59
2022-12-19T19:25:11.991Z,76.09
2022-12-19T19:27:58.525Z,75.55
2022-12-19T19:30:45.307Z,76.57
2022-12-19T19:33:35.491Z,76.63
2022-12-19T19:36:24.239Z,76.65
2022-12-19T19:39:11.745Z,75.39
2022-12-19T19:41:58.408Z,75.67
2022-12-19T19:44:46.497Z,76.27
2022-12-19T19:47:36.114Z,76.23
2022-12-19T19:50:25.277Z,75.72
2022-12-19T19:53:11.566Z,75.53
2022-12-19T19:56:00.734Z,75.68
2022-12-19T19:58:46.926Z,75.78
2022-12-19T20:01:35.059Z,76.14
2022-12-19T20:04:21.875Z,76.59
2022-12-19T20:07:08.529Z,76.57
2022-12-19T20:09:55.268Z,76.25
2022-12-19T20:12:41.678Z,76.75
2022-12-19T20:15:28.305Z,76.22
2022-12-19T20:18:15.003Z,76.03
2022-12-19T20:21:01.440Z,76.25
2022-12-19T20:23:47.815Z,76.29
2022-12-19T20:26:35.353Z,76.75
2022-12-19T20:29:21.947Z,76.55
2022-12-19T20:32:08.409Z,76.34
2022-12-19T20:34:54.821Z,76.43
2022-12-19T20:37:40.999Z,76.74
2022-12-19T20:40:27.433Z,76.88
2022-12-19T20:43:14.369Z,76.75
2022-12-19T20:46:11.967Z,77.44
2022-12-19T20:48:58.284Z,77.82
2022-12-19T20:51:47.221Z,77.66
2022-12-19T20:54:33.809Z,78.28
2022-12-19T20:57:20.353Z,78.15
2022-12-19T21:00:08.829Z,78.12
2022-12-19T21:03:27.785Z,77.97
2022-12-19T21:06:02.408Z,77.56
2022-12-19T21:08:48.732Z,77.59
2022-12-19T21:11:36.582Z,77.61
2022-12-19T21:14:23.096Z,77.75
2022-12-19T21:17:09.597Z,77.58
2022-12-19T21:19:56.154Z,77.58
2022-12-19T21:22:42.611Z,77.97
2022-12-19T21:25:28.974Z,78.25
2022-12-19T21:28:15.350Z,78.05
2022-12-19T21:31:04.397Z,77.54
2022-12-19T21:33:51.407Z,77.29
2022-12-19T21:36:38.706Z,77.24
2022-12-19T21:39:25.735Z,77.85
2022-12-19T21:42:12.081Z,78.43
2022-12-19T21:44:58.269Z,79.16
2022-12-19T21:47:45.317Z,79.30
2022-12-19T21:50:33.629Z,79.81
2022-12-19T21:53:19.859Z,79.72
2022-12-19T21:56:08.101Z,80.08
2022-12-19T21:58:56.827Z,80.46
2022-12-19T22:01:43.655Z,80.17
2022-12-19T22:04:30.035Z,79.64
2022-12-19T22:07:16.319Z,79.19
2022-12-19T22:10:02.434Z,79.43
2022-12-19T22:12:49.014Z,79.23
2022-12-19T22:15:36.458Z,79.64
2022-12-19T22:18:23.021Z,79.69
2022-12-19T22:21:12.032Z,80.55
2022-12-19T22:23:59.318Z,80.08
2022-12-19T22:26:45.916Z,80.25
2022-12-19T22:29:36.492Z,79.93
2022-12-19T22:32:23.302Z,80.37
2022-12-19T22:35:09.648Z,80.42
2022-12-19T22:37:57.040Z,80.09
2022-12-19T22:40:43.708Z,80.60
2022-12-19T22:43:30.319Z,80.56
2022-12-19T22:46:21.593Z,80.46
2022-12-19T22:49:08.885Z,80.79
2022-12-19T22:51:55.390Z,81.38
2022-12-19T22:54:42.093Z,80.83
2022-12-19T22:57:28.420Z,80.51
2022-12-19T23:00:14.958Z,80.07
2022-12-19T23:03:01.812Z,80.64
2022-12-19T23:05:51.838Z,81.43
2022-12-19T23:08:38.704Z,81.14
2022-12-19T23:11:28.435Z,81.15
2022-12-19T23:14:16.975Z,82.17
2022-12-19T23:17:03.141Z,82.50
2022-12-19T23:19:49.374Z,82.91
2022-12-19T23:22:35.797Z,81.86
2022-12-19T23:25:22.062Z,81.80
2022-12-19T23:28:09.569Z,81.72
2022-12-19T23:31:06.162Z,81.63
2022-12-19T23:33:52.507Z,81.97
2022-12-19T23:39:45.807Z,82.47
2022-12-19T23:42:32.241Z,82.53
2022-12-19T23:45:18.488Z,82.28
2022-12-19T23:48:05.391Z,82.32
2022-12-19T23:51:02.818Z,82.72
2022-12-19T23:53:49.131Z,82.82
2022-12-19T23:56:36.120Z,82.84
2022-12-19T23:59:23.013Z,82.31
